sensor_id;sensor_type;location;lat;lon;timestamp;P1;durP1;ratioP1;P2;durP2;ratioP2
76447;SDS011;65284;51.040;13.722;2023-07-13T00:02:03;2.50;;;1.20;;
76447;SDS011;65284;51.040;13.722;2023-07-13T00:04:30;1.98;;;1.38;;
76447;SDS011;65284;51.040;13.722;2023-07-13T00:06:59;4.93;;;1.60;;
76447;SDS011;65284;51.040;13.722;2023-07-13T00:09:25;5.13;;;1.38;;
76447;SDS011;65284;51.040;13.722;2023-07-13T00:11:54;3.47;;;1.38;;
76447;SDS011;65284;51.040;13.722;2023-07-13T00:14:25;4.72;;;1.50;;
76447;SDS011;65284;51.040;13.722;2023-07-13T00:16:53;4.85;;;1.38;;
76447;SDS011;65284;51.040;13.722;2023-07-13T00:19:21;2.80;;;1.38;;
76447;SDS011;65284;51.040;13.722;2023-07-13T00:21:47;4.50;;;1.30;;
76447;SDS011;65284;51.040;13.722;2023-07-13T00:24:14;5.00;;;1.42;;
76447;SDS011;65284;51.040;13.722;2023-07-13T00:26:48;2.13;;;1.20;;
76447;SDS011;65284;51.040;13.722;2023-07-13T00:29:14;3.40;;;1.30;;
76447;SDS011;65284;51.040;13.722;2023-07-13T00:31:42;3.17;;;1.40;;
76447;SDS011;65284;51.040;13.722;2023-07-13T00:34:10;3.30;;;1.65;;
76447;SDS011;65284;51.040;13.722;2023-07-13T00:36:36;3.88;;;1.60;;
76447;SDS011;65284;51.040;13.722;2023-07-13T00:39:03;3.35;;;1.40;;
76447;SDS011;65284;51.040;13.722;2023-07-13T00:41:33;3.83;;;1.60;;
76447;SDS011;65284;51.040;13.722;2023-07-13T00:44:02;2.78;;;1.58;;
76447;SDS011;65284;51.040;13.722;2023-07-13T00:46:30;4.32;;;1.60;;
76447;SDS011;65284;51.040;13.722;2023-07-13T00:49:03;3.70;;;1.75;;
76447;SDS011;65284;51.040;13.722;2023-07-13T00:51:34;4.25;;;1.70;;
76447;SDS011;65284;51.040;13.722;2023-07-13T00:54:13;2.83;;;1.60;;
76447;SDS011;65284;51.040;13.722;2023-07-13T00:56:44;4.18;;;1.80;;
76447;SDS011;65284;51.040;13.722;2023-07-13T00:59:11;4.78;;;2.00;;
76447;SDS011;65284;51.040;13.722;2023-07-13T01:01:41;3.00;;;2.03;;
76447;SDS011;65284;51.040;13.722;2023-07-13T01:04:07;4.30;;;1.90;;
76447;SDS011;65284;51.040;13.722;2023-07-13T01:06:35;4.38;;;1.80;;
76447;SDS011;65284;51.040;13.722;2023-07-13T01:09:03;3.38;;;1.63;;
76447;SDS011;65284;51.040;13.722;2023-07-13T01:11:31;4.75;;;1.80;;
76447;SDS011;65284;51.040;13.722;2023-07-13T01:13:57;3.00;;;1.88;;
76447;SDS011;65284;51.040;13.722;2023-07-13T01:16:27;4.72;;;1.90;;
76447;SDS011;65284;51.040;13.722;2023-07-13T01:18:56;3.85;;;1.85;;
76447;SDS011;65284;51.040;13.722;2023-07-13T01:21:24;4.30;;;1.98;;
76447;SDS011;65284;51.040;13.722;2023-07-13T01:23:52;3.67;;;1.80;;
76447;SDS011;65284;51.040;13.722;2023-07-13T01:26:18;3.90;;;1.92;;
76447;SDS011;65284;51.040;13.722;2023-07-13T01:28:45;4.32;;;2.08;;
76447;SDS011;65284;51.040;13.722;2023-07-13T01:31:11;3.83;;;1.83;;
76447;SDS011;65284;51.040;13.722;2023-07-13T01:33:39;3.63;;;1.90;;
76447;SDS011;65284;51.040;13.722;2023-07-13T01:36:09;3.38;;;2.03;;
76447;SDS011;65284;51.040;13.722;2023-07-13T01:38:37;4.05;;;1.95;;
76447;SDS011;65284;51.040;13.722;2023-07-13T01:41:03;4.43;;;2.20;;
76447;SDS011;65284;51.040;13.722;2023-07-13T01:43:30;3.67;;;2.00;;
76447;SDS011;65284;51.040;13.722;2023-07-13T01:45:56;4.65;;;1.90;;
76447;SDS011;65284;51.040;13.722;2023-07-13T01:48:43;3.55;;;2.05;;
76447;SDS011;65284;51.040;13.722;2023-07-13T01:51:09;5.93;;;2.60;;
76447;SDS011;65284;51.040;13.722;2023-07-13T01:53:35;4.25;;;2.30;;
76447;SDS011;65284;51.040;13.722;2023-07-13T01:56:02;4.60;;;2.22;;
76447;SDS011;65284;51.040;13.722;2023-07-13T01:58:28;5.18;;;2.20;;
76447;SDS011;65284;51.040;13.722;2023-07-13T02:00:55;6.80;;;2.40;;
76447;SDS011;65284;51.040;13.722;2023-07-13T02:03:21;4.20;;;2.25;;
76447;SDS011;65284;51.040;13.722;2023-07-13T02:05:48;3.78;;;2.30;;
76447;SDS011;65284;51.040;13.722;2023-07-13T02:08:14;4.95;;;2.05;;
76447;SDS011;65284;51.040;13.722;2023-07-13T02:10:41;4.00;;;2.10;;
76447;SDS011;65284;51.040;13.722;2023-07-13T02:13:07;5.55;;;2.03;;
76447;SDS011;65284;51.040;13.722;2023-07-13T02:15:38;3.97;;;2.13;;
76447;SDS011;65284;51.040;13.722;2023-07-13T02:18:06;4.10;;;2.05;;
76447;SDS011;65284;51.040;13.722;2023-07-13T02:20:33;4.40;;;2.08;;
76447;SDS011;65284;51.040;13.722;2023-07-13T02:22:59;3.42;;;2.10;;
76447;SDS011;65284;51.040;13.722;2023-07-13T02:25:26;4.07;;;2.33;;
76447;SDS011;65284;51.040;13.722;2023-07-13T02:27:54;5.40;;;2.17;;
76447;SDS011;65284;51.040;13.722;2023-07-13T02:30:20;3.70;;;2.05;;
76447;SDS011;65284;51.040;13.722;2023-07-13T02:32:48;4.07;;;2.25;;
76447;SDS011;65284;51.040;13.722;2023-07-13T02:35:15;4.32;;;2.40;;
76447;SDS011;65284;51.040;13.722;2023-07-13T02:37:41;5.18;;;2.30;;
76447;SDS011;65284;51.040;13.722;2023-07-13T02:40:08;5.68;;;2.60;;
76447;SDS011;65284;51.040;13.722;2023-07-13T02:42:35;4.82;;;2.25;;
76447;SDS011;65284;51.040;13.722;2023-07-13T02:45:05;4.88;;;2.25;;
76447;SDS011;65284;51.040;13.722;2023-07-13T02:47:32;4.85;;;2.38;;
76447;SDS011;65284;51.040;13.722;2023-07-13T02:49:59;4.95;;;2.40;;
76447;SDS011;65284;51.040;13.722;2023-07-13T02:52:26;5.72;;;2.38;;
76447;SDS011;65284;51.040;13.722;2023-07-13T02:54:52;7.32;;;2.78;;
76447;SDS011;65284;51.040;13.722;2023-07-13T02:57:19;5.38;;;2.63;;
76447;SDS011;65284;51.040;13.722;2023-07-13T02:59:45;4.70;;;2.50;;
76447;SDS011;65284;51.040;13.722;2023-07-13T03:02:12;7.32;;;2.40;;
76447;SDS011;65284;51.040;13.722;2023-07-13T03:04:39;5.25;;;2.65;;
76447;SDS011;65284;51.040;13.722;2023-07-13T03:07:07;4.93;;;2.55;;
76447;SDS011;65284;51.040;13.722;2023-07-13T03:09:34;3.63;;;2.42;;
76447;SDS011;65284;51.040;13.722;2023-07-13T03:12:01;4.75;;;2.50;;
76447;SDS011;65284;51.040;13.722;2023-07-13T03:14:27;4.47;;;2.40;;
76447;SDS011;65284;51.040;13.722;2023-07-13T03:16:54;4.75;;;2.80;;
76447;SDS011;65284;51.040;13.722;2023-07-13T03:19:20;4.43;;;2.58;;
76447;SDS011;65284;51.040;13.722;2023-07-13T03:21:47;4.88;;;2.60;;
76447;SDS011;65284;51.040;13.722;2023-07-13T03:24:13;4.25;;;2.70;;
76447;SDS011;65284;51.040;13.722;2023-07-13T03:26:40;4.97;;;2.55;;
76447;SDS011;65284;51.040;13.722;2023-07-13T03:29:06;4.75;;;2.35;;
76447;SDS011;65284;51.040;13.722;2023-07-13T03:31:33;6.93;;;2.90;;
76447;SDS011;65284;51.040;13.722;2023-07-13T03:34:01;8.13;;;2.90;;
76447;SDS011;65284;51.040;13.722;2023-07-13T03:36:28;4.18;;;2.55;;
76447;SDS011;65284;51.040;13.722;2023-07-13T03:38:56;7.30;;;2.95;;
76447;SDS011;65284;51.040;13.722;2023-07-13T03:41:24;5.40;;;2.65;;
76447;SDS011;65284;51.040;13.722;2023-07-13T03:43:51;4.97;;;2.70;;
76447;SDS011;65284;51.040;13.722;2023-07-13T03:46:18;5.97;;;3.13;;
76447;SDS011;65284;51.040;13.722;2023-07-13T03:48:46;6.72;;;3.28;;
76447;SDS011;65284;51.040;13.722;2023-07-13T03:51:14;5.53;;;2.92;;
76447;SDS011;65284;51.040;13.722;2023-07-13T03:53:42;7.00;;;3.00;;
76447;SDS011;65284;51.040;13.722;2023-07-13T03:56:10;5.85;;;3.17;;
76447;SDS011;65284;51.040;13.722;2023-07-13T03:58:38;4.78;;;3.00;;
76447;SDS011;65284;51.040;13.722;2023-07-13T04:01:07;7.50;;;3.83;;
76447;SDS011;65284;51.040;13.722;2023-07-13T04:03:35;5.03;;;2.63;;
76447;SDS011;65284;51.040;13.722;2023-07-13T04:06:03;5.25;;;2.72;;
76447;SDS011;65284;51.040;13.722;2023-07-13T04:08:32;5.53;;;3.03;;
76447;SDS011;65284;51.040;13.722;2023-07-13T04:11:01;4.88;;;2.78;;
76447;SDS011;65284;51.040;13.722;2023-07-13T04:13:28;9.85;;;5.47;;
76447;SDS011;65284;51.040;13.722;2023-07-13T04:15:54;6.32;;;2.70;;
76447;SDS011;65284;51.040;13.722;2023-07-13T04:18:21;5.53;;;3.00;;
76447;SDS011;65284;51.040;13.722;2023-07-13T04:20:48;5.35;;;2.75;;
76447;SDS011;65284;51.040;13.722;2023-07-13T04:23:18;7.68;;;2.70;;
76447;SDS011;65284;51.040;13.722;2023-07-13T04:25:46;4.43;;;2.60;;
76447;SDS011;65284;51.040;13.722;2023-07-13T04:28:15;5.03;;;2.80;;
76447;SDS011;65284;51.040;13.722;2023-07-13T04:30:43;5.63;;;2.63;;
76447;SDS011;65284;51.040;13.722;2023-07-13T04:33:10;7.53;;;2.80;;
76447;SDS011;65284;51.040;13.722;2023-07-13T04:35:36;8.55;;;2.67;;
76447;SDS011;65284;51.040;13.722;2023-07-13T04:38:03;5.93;;;2.50;;
76447;SDS011;65284;51.040;13.722;2023-07-13T04:40:30;4.35;;;2.45;;
76447;SDS011;65284;51.040;13.722;2023-07-13T04:42:56;4.38;;;2.60;;
76447;SDS011;65284;51.040;13.722;2023-07-13T04:45:23;4.70;;;2.50;;
76447;SDS011;65284;51.040;13.722;2023-07-13T04:47:50;4.75;;;2.30;;
76447;SDS011;65284;51.040;13.722;2023-07-13T04:50:16;4.32;;;2.42;;
76447;SDS011;65284;51.040;13.722;2023-07-13T04:52:47;7.60;;;2.60;;
76447;SDS011;65284;51.040;13.722;2023-07-13T04:55:14;4.95;;;2.67;;
76447;SDS011;65284;51.040;13.722;2023-07-13T04:57:40;5.25;;;2.50;;
76447;SDS011;65284;51.040;13.722;2023-07-13T05:00:07;4.70;;;2.20;;
76447;SDS011;65284;51.040;13.722;2023-07-13T05:02:34;6.57;;;2.28;;
76447;SDS011;65284;51.040;13.722;2023-07-13T05:05:01;5.65;;;2.30;;
76447;SDS011;65284;51.040;13.722;2023-07-13T05:07:29;8.77;;;2.22;;
76447;SDS011;65284;51.040;13.722;2023-07-13T05:09:56;4.68;;;2.10;;
76447;SDS011;65284;51.040;13.722;2023-07-13T05:12:22;3.78;;;2.20;;
76447;SDS011;65284;51.040;13.722;2023-07-13T05:14:49;4.55;;;2.20;;
76447;SDS011;65284;51.040;13.722;2023-07-13T05:17:16;6.55;;;2.47;;
76447;SDS011;65284;51.040;13.722;2023-07-13T05:19:42;3.47;;;2.03;;
76447;SDS011;65284;51.040;13.722;2023-07-13T05:22:09;4.30;;;2.00;;
76447;SDS011;65284;51.040;13.722;2023-07-13T05:24:35;3.88;;;2.20;;
76447;SDS011;65284;51.040;13.722;2023-07-13T05:27:02;5.30;;;2.10;;
76447;SDS011;65284;51.040;13.722;2023-07-13T05:29:28;6.78;;;2.25;;
76447;SDS011;65284;51.040;13.722;2023-07-13T05:31:55;7.03;;;2.08;;
76447;SDS011;65284;51.040;13.722;2023-07-13T05:34:22;7.22;;;2.40;;
76447;SDS011;65284;51.040;13.722;2023-07-13T05:36:49;5.88;;;2.50;;
76447;SDS011;65284;51.040;13.722;2023-07-13T05:39:16;5.53;;;2.30;;
76447;SDS011;65284;51.040;13.722;2023-07-13T05:41:42;7.13;;;2.50;;
76447;SDS011;65284;51.040;13.722;2023-07-13T05:44:09;5.60;;;2.50;;
76447;SDS011;65284;51.040;13.722;2023-07-13T05:46:35;4.93;;;2.40;;
76447;SDS011;65284;51.040;13.722;2023-07-13T05:49:02;5.38;;;2.45;;
76447;SDS011;65284;51.040;13.722;2023-07-13T05:51:29;6.28;;;2.65;;
76447;SDS011;65284;51.040;13.722;2023-07-13T05:53:56;11.98;;;2.83;;
76447;SDS011;65284;51.040;13.722;2023-07-13T05:56:22;6.70;;;3.10;;
76447;SDS011;65284;51.040;13.722;2023-07-13T05:58:49;8.88;;;2.58;;
76447;SDS011;65284;51.040;13.722;2023-07-13T06:01:15;6.07;;;3.22;;
76447;SDS011;65284;51.040;13.722;2023-07-13T06:03:42;8.43;;;4.00;;
76447;SDS011;65284;51.040;13.722;2023-07-13T06:06:09;8.45;;;3.80;;
76447;SDS011;65284;51.040;13.722;2023-07-13T06:08:36;7.38;;;2.58;;
76447;SDS011;65284;51.040;13.722;2023-07-13T06:11:08;5.75;;;2.53;;
76447;SDS011;65284;51.040;13.722;2023-07-13T06:13:39;6.72;;;2.63;;
76447;SDS011;65284;51.040;13.722;2023-07-13T06:16:05;5.10;;;2.50;;
76447;SDS011;65284;51.040;13.722;2023-07-13T06:18:33;5.15;;;2.50;;
76447;SDS011;65284;51.040;13.722;2023-07-13T06:21:00;9.23;;;3.10;;
76447;SDS011;65284;51.040;13.722;2023-07-13T06:23:31;8.68;;;2.92;;
76447;SDS011;65284;51.040;13.722;2023-07-13T06:25:58;9.60;;;2.50;;
76447;SDS011;65284;51.040;13.722;2023-07-13T06:28:24;4.72;;;2.47;;
76447;SDS011;65284;51.040;13.722;2023-07-13T06:30:50;6.35;;;2.78;;
76447;SDS011;65284;51.040;13.722;2023-07-13T06:33:17;4.13;;;2.40;;
76447;SDS011;65284;51.040;13.722;2023-07-13T06:35:43;6.20;;;2.40;;
76447;SDS011;65284;51.040;13.722;2023-07-13T06:38:10;6.20;;;2.53;;
76447;SDS011;65284;51.040;13.722;2023-07-13T06:40:36;7.32;;;2.80;;
76447;SDS011;65284;51.040;13.722;2023-07-13T06:43:02;5.97;;;2.55;;
76447;SDS011;65284;51.040;13.722;2023-07-13T06:45:29;5.50;;;2.42;;
76447;SDS011;65284;51.040;13.722;2023-07-13T06:47:55;4.22;;;2.20;;
76447;SDS011;65284;51.040;13.722;2023-07-13T06:50:22;5.53;;;2.70;;
76447;SDS011;65284;51.040;13.722;2023-07-13T06:52:48;5.28;;;2.30;;
76447;SDS011;65284;51.040;13.722;2023-07-13T06:55:18;6.20;;;2.60;;
76447;SDS011;65284;51.040;13.722;2023-07-13T06:57:44;6.82;;;2.50;;
76447;SDS011;65284;51.040;13.722;2023-07-13T07:00:11;5.40;;;2.50;;
76447;SDS011;65284;51.040;13.722;2023-07-13T07:02:37;4.97;;;2.30;;
76447;SDS011;65284;51.040;13.722;2023-07-13T07:05:04;8.15;;;2.53;;
76447;SDS011;65284;51.040;13.722;2023-07-13T07:07:31;4.82;;;2.42;;
76447;SDS011;65284;51.040;13.722;2023-07-13T07:09:57;5.07;;;2.20;;
76447;SDS011;65284;51.040;13.722;2023-07-13T07:12:24;4.82;;;2.25;;
76447;SDS011;65284;51.040;13.722;2023-07-13T07:14:50;8.35;;;2.50;;
76447;SDS011;65284;51.040;13.722;2023-07-13T07:17:17;4.95;;;2.33;;
76447;SDS011;65284;51.040;13.722;2023-07-13T07:19:43;5.30;;;1.90;;
76447;SDS011;65284;51.040;13.722;2023-07-13T07:22:10;5.40;;;2.20;;
76447;SDS011;65284;51.040;13.722;2023-07-13T07:24:36;8.18;;;2.30;;
76447;SDS011;65284;51.040;13.722;2023-07-13T07:27:03;3.50;;;1.92;;
76447;SDS011;65284;51.040;13.722;2023-07-13T07:29:32;6.43;;;2.50;;
76447;SDS011;65284;51.040;13.722;2023-07-13T07:32:02;6.38;;;2.13;;
76447;SDS011;65284;51.040;13.722;2023-07-13T07:34:48;5.82;;;1.95;;
76447;SDS011;65284;51.040;13.722;2023-07-13T07:37:15;3.53;;;1.80;;
76447;SDS011;65284;51.040;13.722;2023-07-13T07:39:45;5.18;;;2.10;;
76447;SDS011;65284;51.040;13.722;2023-07-13T07:42:31;5.25;;;1.80;;
76447;SDS011;65284;51.040;13.722;2023-07-13T07:44:58;4.93;;;2.00;;
76447;SDS011;65284;51.040;13.722;2023-07-13T07:47:24;4.25;;;1.80;;
76447;SDS011;65284;51.040;13.722;2023-07-13T07:49:51;3.88;;;1.67;;
76447;SDS011;65284;51.040;13.722;2023-07-13T07:52:17;4.32;;;1.70;;
76447;SDS011;65284;51.040;13.722;2023-07-13T07:54:44;3.60;;;1.70;;
76447;SDS011;65284;51.040;13.722;2023-07-13T07:57:13;4.35;;;1.83;;
76447;SDS011;65284;51.040;13.722;2023-07-13T07:59:42;4.80;;;1.73;;
76447;SDS011;65284;51.040;13.722;2023-07-13T08:02:12;7.07;;;2.08;;
76447;SDS011;65284;51.040;13.722;2023-07-13T08:04:58;4.05;;;1.80;;
76447;SDS011;65284;51.040;13.722;2023-07-13T08:07:28;4.03;;;1.92;;
76447;SDS011;65284;51.040;13.722;2023-07-13T08:09:56;4.10;;;1.92;;
76447;SDS011;65284;51.040;13.722;2023-07-13T08:12:23;4.78;;;1.75;;
76447;SDS011;65284;51.040;13.722;2023-07-13T08:14:52;3.50;;;1.73;;
76447;SDS011;65284;51.040;13.722;2023-07-13T08:17:24;4.55;;;1.60;;
76447;SDS011;65284;51.040;13.722;2023-07-13T08:19:51;3.70;;;1.83;;
76447;SDS011;65284;51.040;13.722;2023-07-13T08:22:18;3.63;;;1.90;;
76447;SDS011;65284;51.040;13.722;2023-07-13T08:24:45;4.00;;;1.80;;
76447;SDS011;65284;51.040;13.722;2023-07-13T08:27:13;4.55;;;1.75;;
76447;SDS011;65284;51.040;13.722;2023-07-13T08:29:39;5.18;;;1.90;;
76447;SDS011;65284;51.040;13.722;2023-07-13T08:32:06;5.28;;;2.30;;
76447;SDS011;65284;51.040;13.722;2023-07-13T08:34:37;3.80;;;1.80;;
76447;SDS011;65284;51.040;13.722;2023-07-13T08:37:03;4.18;;;1.92;;
76447;SDS011;65284;51.040;13.722;2023-07-13T08:39:30;6.55;;;1.88;;
76447;SDS011;65284;51.040;13.722;2023-07-13T08:42:01;3.70;;;1.83;;
76447;SDS011;65284;51.040;13.722;2023-07-13T08:44:39;4.30;;;2.00;;
76447;SDS011;65284;51.040;13.722;2023-07-13T08:47:16;4.32;;;2.20;;
76447;SDS011;65284;51.040;13.722;2023-07-13T08:49:43;3.20;;;2.00;;
76447;SDS011;65284;51.040;13.722;2023-07-13T08:52:12;3.15;;;1.63;;
76447;SDS011;65284;51.040;13.722;2023-07-13T08:54:51;6.03;;;1.92;;
76447;SDS011;65284;51.040;13.722;2023-07-13T08:57:21;4.50;;;1.55;;
76447;SDS011;65284;51.040;13.722;2023-07-13T08:59:56;5.40;;;1.52;;
76447;SDS011;65284;51.040;13.722;2023-07-13T09:02:25;4.10;;;1.70;;
76447;SDS011;65284;51.040;13.722;2023-07-13T09:07:41;3.45;;;1.60;;
76447;SDS011;65284;51.040;13.722;2023-07-13T09:10:32;3.97;;;1.77;;
76447;SDS011;65284;51.040;13.722;2023-07-13T09:13:25;3.30;;;1.80;;
76447;SDS011;65284;51.040;13.722;2023-07-13T09:16:03;3.75;;;1.60;;
76447;SDS011;65284;51.040;13.722;2023-07-13T09:18:35;5.50;;;1.60;;
76447;SDS011;65284;51.040;13.722;2023-07-13T09:21:05;3.53;;;1.58;;
76447;SDS011;65284;51.040;13.722;2023-07-13T09:23:37;6.07;;;1.60;;
76447;SDS011;65284;51.040;13.722;2023-07-13T09:26:06;4.82;;;1.60;;
76447;SDS011;65284;51.040;13.722;2023-07-13T09:28:40;4.63;;;1.55;;
76447;SDS011;65284;51.040;13.722;2023-07-13T09:31:10;3.92;;;1.70;;
76447;SDS011;65284;51.040;13.722;2023-07-13T09:33:41;5.30;;;1.77;;
76447;SDS011;65284;51.040;13.722;2023-07-13T09:36:18;4.43;;;1.80;;
76447;SDS011;65284;51.040;13.722;2023-07-13T09:38:57;3.92;;;1.50;;
76447;SDS011;65284;51.040;13.722;2023-07-13T09:44:31;3.72;;;1.45;;
76447;SDS011;65284;51.040;13.722;2023-07-13T09:47:02;5.22;;;1.45;;
76447;SDS011;65284;51.040;13.722;2023-07-13T09:49:31;5.00;;;1.60;;
76447;SDS011;65284;51.040;13.722;2023-07-13T09:52:03;5.00;;;1.88;;
76447;SDS011;65284;51.040;13.722;2023-07-13T09:57:08;3.33;;;1.40;;
76447;SDS011;65284;51.040;13.722;2023-07-13T09:59:40;4.45;;;1.55;;
76447;SDS011;65284;51.040;13.722;2023-07-13T10:02:23;4.47;;;1.70;;
76447;SDS011;65284;51.040;13.722;2023-07-13T10:04:57;5.10;;;1.50;;
76447;SDS011;65284;51.040;13.722;2023-07-13T10:07:30;4.38;;;1.45;;
76447;SDS011;65284;51.040;13.722;2023-07-13T10:09:58;4.25;;;1.50;;
76447;SDS011;65284;51.040;13.722;2023-07-13T10:12:30;6.70;;;1.58;;
76447;SDS011;65284;51.040;13.722;2023-07-13T10:15:02;5.30;;;1.70;;
76447;SDS011;65284;51.040;13.722;2023-07-13T10:17:49;4.03;;;1.70;;
76447;SDS011;65284;51.040;13.722;2023-07-13T10:20:17;3.97;;;1.63;;
76447;SDS011;65284;51.040;13.722;2023-07-13T10:22:56;5.55;;;1.65;;
76447;SDS011;65284;51.040;13.722;2023-07-13T10:25:28;5.05;;;1.73;;
76447;SDS011;65284;51.040;13.722;2023-07-13T10:27:58;3.25;;;1.70;;
76447;SDS011;65284;51.040;13.722;2023-07-13T10:30:38;4.00;;;1.70;;
76447;SDS011;65284;51.040;13.722;2023-07-13T10:33:10;3.40;;;1.70;;
76447;SDS011;65284;51.040;13.722;2023-07-13T10:35:38;5.40;;;1.80;;
76447;SDS011;65284;51.040;13.722;2023-07-13T10:38:12;4.47;;;1.70;;
76447;SDS011;65284;51.040;13.722;2023-07-13T10:40:45;5.85;;;1.60;;
76447;SDS011;65284;51.040;13.722;2023-07-13T10:43:24;4.57;;;1.50;;
76447;SDS011;65284;51.040;13.722;2023-07-13T10:45:53;3.08;;;1.42;;
76447;SDS011;65284;51.040;13.722;2023-07-13T10:48:21;3.83;;;1.10;;
76447;SDS011;65284;51.040;13.722;2023-07-13T10:50:50;3.90;;;1.50;;
76447;SDS011;65284;51.040;13.722;2023-07-13T10:53:29;5.88;;;1.20;;
76447;SDS011;65284;51.040;13.722;2023-07-13T10:55:59;4.85;;;1.10;;
76447;SDS011;65284;51.040;13.722;2023-07-13T11:03:32;4.68;;;1.50;;
76447;SDS011;65284;51.040;13.722;2023-07-13T11:06:12;3.55;;;1.00;;
76447;SDS011;65284;51.040;13.722;2023-07-13T11:19:07;7.18;;;1.33;;
76447;SDS011;65284;51.040;13.722;2023-07-13T11:24:56;4.32;;;1.35;;
76447;SDS011;65284;51.040;13.722;2023-07-13T11:30:13;3.67;;;1.50;;
76447;SDS011;65284;51.040;13.722;2023-07-13T11:32:52;5.05;;;1.58;;
76447;SDS011;65284;51.040;13.722;2023-07-13T11:35:36;7.93;;;1.90;;
76447;SDS011;65284;51.040;13.722;2023-07-13T11:38:14;5.63;;;1.60;;
76447;SDS011;65284;51.040;13.722;2023-07-13T11:40:45;6.00;;;1.73;;
76447;SDS011;65284;51.040;13.722;2023-07-13T11:43:21;3.92;;;1.40;;
76447;SDS011;65284;51.040;13.722;2023-07-13T11:45:49;3.22;;;1.38;;
76447;SDS011;65284;51.040;13.722;2023-07-13T11:48:20;5.22;;;1.33;;
76447;SDS011;65284;51.040;13.722;2023-07-13T11:50:51;4.07;;;1.58;;
76447;SDS011;65284;51.040;13.722;2023-07-13T11:53:21;3.78;;;1.50;;
76447;SDS011;65284;51.040;13.722;2023-07-13T11:55:48;3.83;;;1.90;;
76447;SDS011;65284;51.040;13.722;2023-07-13T11:58:17;5.25;;;1.45;;
76447;SDS011;65284;51.040;13.722;2023-07-13T12:00:47;3.17;;;1.33;;
76447;SDS011;65284;51.040;13.722;2023-07-13T12:03:14;4.00;;;1.80;;
76447;SDS011;65284;51.040;13.722;2023-07-13T12:06:02;5.70;;;1.60;;
76447;SDS011;65284;51.040;13.722;2023-07-13T12:08:37;6.70;;;2.08;;
76447;SDS011;65284;51.040;13.722;2023-07-13T12:11:16;4.72;;;1.58;;
76447;SDS011;65284;51.040;13.722;2023-07-13T12:13:44;3.50;;;1.55;;
76447;SDS011;65284;51.040;13.722;2023-07-13T12:16:12;6.13;;;1.70;;
76447;SDS011;65284;51.040;13.722;2023-07-13T12:18:42;5.20;;;1.42;;
76447;SDS011;65284;51.040;13.722;2023-07-13T12:21:16;3.13;;;1.50;;
76447;SDS011;65284;51.040;13.722;2023-07-13T12:23:45;4.57;;;1.30;;
76447;SDS011;65284;51.040;13.722;2023-07-13T12:26:15;4.57;;;1.42;;
76447;SDS011;65284;51.040;13.722;2023-07-13T12:28:45;5.38;;;1.83;;
76447;SDS011;65284;51.040;13.722;2023-07-13T12:31:24;2.25;;;1.33;;
76447;SDS011;65284;51.040;13.722;2023-07-13T12:34:01;4.47;;;1.60;;
76447;SDS011;65284;51.040;13.722;2023-07-13T12:36:40;4.43;;;1.38;;
76447;SDS011;65284;51.040;13.722;2023-07-13T12:39:13;6.30;;;1.48;;
76447;SDS011;65284;51.040;13.722;2023-07-13T12:41:42;4.18;;;1.35;;
76447;SDS011;65284;51.040;13.722;2023-07-13T12:44:12;4.45;;;1.55;;
76447;SDS011;65284;51.040;13.722;2023-07-13T12:46:58;4.45;;;1.40;;
76447;SDS011;65284;51.040;13.722;2023-07-13T12:49:32;4.10;;;1.33;;
76447;SDS011;65284;51.040;13.722;2023-07-13T12:52:02;5.10;;;1.60;;
76447;SDS011;65284;51.040;13.722;2023-07-13T12:54:38;3.78;;;1.40;;
76447;SDS011;65284;51.040;13.722;2023-07-13T12:57:13;3.88;;;1.33;;
76447;SDS011;65284;51.040;13.722;2023-07-13T12:59:43;3.92;;;1.40;;
76447;SDS011;65284;51.040;13.722;2023-07-13T13:02:20;4.13;;;1.20;;
76447;SDS011;65284;51.040;13.722;2023-07-13T13:04:58;4.40;;;1.60;;
76447;SDS011;65284;51.040;13.722;2023-07-13T13:07:25;5.30;;;1.58;;
76447;SDS011;65284;51.040;13.722;2023-07-13T13:09:52;3.45;;;1.20;;
76447;SDS011;65284;51.040;13.722;2023-07-13T13:12:19;3.60;;;1.30;;
76447;SDS011;65284;51.040;13.722;2023-07-13T13:14:46;4.78;;;1.48;;
76447;SDS011;65284;51.040;13.722;2023-07-13T13:17:18;4.60;;;1.27;;
76447;SDS011;65284;51.040;13.722;2023-07-13T13:19:47;4.00;;;1.17;;
76447;SDS011;65284;51.040;13.722;2023-07-13T13:22:14;4.47;;;1.30;;
76447;SDS011;65284;51.040;13.722;2023-07-13T13:24:40;2.63;;;1.20;;
76447;SDS011;65284;51.040;13.722;2023-07-13T13:27:11;4.93;;;1.30;;
76447;SDS011;65284;51.040;13.722;2023-07-13T13:29:43;4.07;;;1.15;;
76447;SDS011;65284;51.040;13.722;2023-07-13T13:32:12;2.70;;;1.20;;
76447;SDS011;65284;51.040;13.722;2023-07-13T13:34:40;5.05;;;1.30;;
76447;SDS011;65284;51.040;13.722;2023-07-13T13:37:16;5.53;;;1.40;;
76447;SDS011;65284;51.040;13.722;2023-07-13T13:39:45;3.35;;;1.13;;
76447;SDS011;65284;51.040;13.722;2023-07-13T13:42:32;5.18;;;1.35;;
76447;SDS011;65284;51.040;13.722;2023-07-13T13:44:59;5.20;;;1.30;;
76447;SDS011;65284;51.040;13.722;2023-07-13T13:47:28;1.80;;;1.00;;
76447;SDS011;65284;51.040;13.722;2023-07-13T13:49:57;2.28;;;1.08;;
76447;SDS011;65284;51.040;13.722;2023-07-13T13:52:24;3.42;;;1.05;;
76447;SDS011;65284;51.040;13.722;2023-07-13T13:54:51;2.47;;;1.17;;
76447;SDS011;65284;51.040;13.722;2023-07-13T13:57:23;5.00;;;1.10;;
76447;SDS011;65284;51.040;13.722;2023-07-13T13:59:51;4.47;;;1.02;;
76447;SDS011;65284;51.040;13.722;2023-07-13T14:02:25;2.95;;;1.10;;
76447;SDS011;65284;51.040;13.722;2023-07-13T14:04:55;3.38;;;1.10;;
76447;SDS011;65284;51.040;13.722;2023-07-13T14:07:24;3.20;;;1.10;;
76447;SDS011;65284;51.040;13.722;2023-07-13T14:09:54;3.70;;;1.33;;
76447;SDS011;65284;51.040;13.722;2023-07-13T14:12:23;3.30;;;1.10;;
76447;SDS011;65284;51.040;13.722;2023-07-13T14:14:52;4.15;;;1.10;;
76447;SDS011;65284;51.040;13.722;2023-07-13T14:17:22;3.13;;;0.98;;
76447;SDS011;65284;51.040;13.722;2023-07-13T14:19:53;4.80;;;1.40;;
76447;SDS011;65284;51.040;13.722;2023-07-13T14:22:24;3.17;;;1.20;;
76447;SDS011;65284;51.040;13.722;2023-07-13T14:24:55;3.90;;;1.20;;
76447;SDS011;65284;51.040;13.722;2023-07-13T14:27:23;2.40;;;1.05;;
76447;SDS011;65284;51.040;13.722;2023-07-13T14:29:51;3.85;;;1.27;;
76447;SDS011;65284;51.040;13.722;2023-07-13T14:32:17;5.95;;;1.13;;
76447;SDS011;65284;51.040;13.722;2023-07-13T14:34:44;3.20;;;1.23;;
76447;SDS011;65284;51.040;13.722;2023-07-13T14:37:13;4.07;;;1.17;;
76447;SDS011;65284;51.040;13.722;2023-07-13T14:39:42;6.88;;;1.45;;
76447;SDS011;65284;51.040;13.722;2023-07-13T14:42:10;3.63;;;1.10;;
76447;SDS011;65284;51.040;13.722;2023-07-13T14:44:37;4.28;;;1.20;;
76447;SDS011;65284;51.040;13.722;2023-07-13T14:47:05;4.43;;;1.10;;
76447;SDS011;65284;51.040;13.722;2023-07-13T14:49:37;5.70;;;1.20;;
76447;SDS011;65284;51.040;13.722;2023-07-13T14:52:09;5.22;;;1.20;;
76447;SDS011;65284;51.040;13.722;2023-07-13T14:54:38;3.22;;;1.10;;
76447;SDS011;65284;51.040;13.722;2023-07-13T14:57:10;4.80;;;1.20;;
76447;SDS011;65284;51.040;13.722;2023-07-13T14:59:39;3.42;;;1.10;;
76447;SDS011;65284;51.040;13.722;2023-07-13T15:04:48;4.32;;;1.10;;
76447;SDS011;65284;51.040;13.722;2023-07-13T15:07:14;2.95;;;1.10;;
76447;SDS011;65284;51.040;13.722;2023-07-13T15:09:42;5.25;;;1.40;;
76447;SDS011;65284;51.040;13.722;2023-07-13T15:12:09;4.50;;;0.95;;
76447;SDS011;65284;51.040;13.722;2023-07-13T15:14:36;4.82;;;1.15;;
76447;SDS011;65284;51.040;13.722;2023-07-13T15:17:02;2.88;;;1.10;;
76447;SDS011;65284;51.040;13.722;2023-07-13T15:19:29;6.32;;;1.00;;